sensor_id;sensor_type;location;lat;lon;timestamp;pressure;altitude;pressure_sealevel;temperature;humidity
13068;BME280;6600;51.362;6.686;2024-02-04T00:01:42;101963.69;;;12.09;100.00
13068;BME280;6600;51.362;6.686;2024-02-04T00:04:07;101969.91;;;12.09;100.00
13068;BME280;6600;51.362;6.686;2024-02-04T00:06:33;101963.19;;;11.99;100.00
13068;BME280;6600;51.362;6.686;2024-02-04T00:08:58;101962.41;;;12.05;100.00
13068;BME280;6600;51.362;6.686;2024-02-04T00:11:24;101958.75;;;11.85;100.00
13068;BME280;6600;51.362;6.686;2024-02-04T00:13:49;101950.59;;;11.99;100.00
13068;BME280;6600;51.362;6.686;2024-02-04T00:16:14;101944.78;;;11.96;100.00
13068;BME280;6600;51.362;6.686;2024-02-04T00:18:40;101946.31;;;11.84;100.00
13068;BME280;6600;51.362;6.686;2024-02-04T00:21:05;101937.38;;;11.77;100.00
13068;BME280;6600;51.362;6.686;2024-02-04T00:23:30;101929.69;;;11.95;100.00
13068;BME280;6600;51.362;6.686;2024-02-04T00:25:56;101944.78;;;11.96;100.00
13068;BME280;6600;51.362;6.686;2024-02-04T00:28:22;101937.97;;;12.00;100.00
13068;BME280;6600;51.362;6.686;2024-02-04T00:30:47;101938.97;;;11.92;100.00
13068;BME280;6600;51.362;6.686;2024-02-04T00:33:15;101937.25;;;11.85;100.00
13068;BME280;6600;51.362;6.686;2024-02-04T00:35:40;101940.91;;;11.77;100.00
13068;BME280;6600;51.362;6.686;2024-02-04T00:38:05;101939.44;;;11.75;100.00
13068;BME280;6600;51.362;6.686;2024-02-04T00:40:31;101935.97;;;11.81;100.00
13068;BME280;6600;51.362;6.686;2024-02-04T00:42:56;101939.53;;;11.66;100.00
13068;BME280;6600;51.362;6.686;2024-02-04T00:45:22;101939.53;;;11.66;100.00
13068;BME280;6600;51.362;6.686;2024-02-04T00:47:47;101933.03;;;11.76;100.00
13068;BME280;6600;51.362;6.686;2024-02-04T00:50:12;101937.16;;;11.72;100.00
13068;BME280;6600;51.362;6.686;2024-02-04T00:52:38;101940.31;;;11.60;100.00
13068;BME280;6600;51.362;6.686;2024-02-04T00:55:04;101930.09;;;11.71;100.00
13068;BME280;6600;51.362;6.686;2024-02-04T00:57:29;101926.41;;;11.72;100.00
13068;BME280;6600;51.362;6.686;2024-02-04T00:59:54;101938.31;;;11.69;100.00
13068;BME280;6600;51.362;6.686;2024-02-04T01:02:20;101927.00;;;11.52;100.00
13068;BME280;6600;51.362;6.686;2024-02-04T01:04:45;101922.28;;;11.76;100.00
13068;BME280;6600;51.362;6.686;2024-02-04T01:07:10;101930.47;;;11.68;100.00
13068;BME280;6600;51.362;6.686;2024-02-04T01:09:35;101923.03;;;11.70;100.00
13068;BME280;6600;51.362;6.686;2024-02-04T01:12:01;101932.91;;;11.84;100.00
13068;BME280;6600;51.362;6.686;2024-02-04T01:14:26;101937.00;;;11.80;100.00
13068;BME280;6600;51.362;6.686;2024-02-04T01:16:52;101928.41;;;11.91;100.00
13068;BME280;6600;51.362;6.686;2024-02-04T01:19:17;101931.75;;;11.93;100.00
13068;BME280;6600;51.362;6.686;2024-02-04T01:21:42;101939.53;;;11.88;100.00
13068;BME280;6600;51.362;6.686;2024-02-04T01:24:09;101931.16;;;11.97;100.00
13068;BME280;6600;51.362;6.686;2024-02-04T01:26:34;101930.72;;;11.73;100.00
13068;BME280;6600;51.362;6.686;2024-02-04T01:28:59;101925.72;;;11.91;100.00
13068;BME280;6600;51.362;6.686;2024-02-04T01:31:26;101940.34;;;11.82;100.00
13068;BME280;6600;51.362;6.686;2024-02-04T01:33:51;101932.31;;;11.88;100.00
13068;BME280;6600;51.362;6.686;2024-02-04T01:36:17;101948.91;;;11.71;100.00
13068;BME280;6600;51.362;6.686;2024-02-04T01:38:42;101946.97;;;11.86;100.00
13068;BME280;6600;51.362;6.686;2024-02-04T01:41:08;101940.97;;;11.84;100.00
13068;BME280;6600;51.362;6.686;2024-02-04T01:43:33;101940.34;;;11.82;100.00
13068;BME280;6600;51.362;6.686;2024-02-04T01:45:59;101941.91;;;11.97;100.00
13068;BME280;6600;51.362;6.686;2024-02-04T01:48:24;101942.00;;;12.10;100.00
13068;BME280;6600;51.362;6.686;2024-02-04T01:50:53;101926.63;;;11.98;100.00
13068;BME280;6600;51.362;6.686;2024-02-04T01:53:22;101934.75;;;12.11;100.00
13068;BME280;6600;51.362;6.686;2024-02-04T01:55:51;101940.31;;;12.03;100.00
13068;BME280;6600;51.362;6.686;2024-02-04T01:58:17;101934.44;;;11.93;100.00
13068;BME280;6600;51.362;6.686;2024-02-04T02:00:42;101927.50;;;12.05;100.00
13068;BME280;6600;51.362;6.686;2024-02-04T02:03:11;101923.00;;;12.12;100.00
13068;BME280;6600;51.362;6.686;2024-02-04T02:05:37;101914.84;;;11.99;100.00
13068;BME280;6600;51.362;6.686;2024-02-04T02:08:03;101921.50;;;12.03;100.00
13068;BME280;6600;51.362;6.686;2024-02-04T02:10:28;101928.06;;;12.00;100.00
13068;BME280;6600;51.362;6.686;2024-02-04T02:13:09;101930.84;;;12.13;100.00
13068;BME280;6600;51.362;6.686;2024-02-04T02:15:40;101925.00;;;12.03;100.00
13068;BME280;6600;51.362;6.686;2024-02-04T02:18:26;101926.06;;;12.09;100.00
13068;BME280;6600;51.362;6.686;2024-02-04T02:24:14;101924.63;;;12.06;100.00
13068;BME280;6600;51.362;6.686;2024-02-04T02:26:41;101918.69;;;11.90;100.00
13068;BME280;6600;51.362;6.686;2024-02-04T02:29:07;101922.50;;;12.02;100.00
13068;BME280;6600;51.362;6.686;2024-02-04T02:31:35;101919.25;;;12.06;100.00
13068;BME280;6600;51.362;6.686;2024-02-04T02:34:01;101925.34;;;11.94;100.00
13068;BME280;6600;51.362;6.686;2024-02-04T02:36:28;101924.66;;;12.13;100.00
13068;BME280;6600;51.362;6.686;2024-02-04T02:39:15;101928.50;;;12.04;100.00
13068;BME280;6600;51.362;6.686;2024-02-04T02:41:42;101926.44;;;11.99;100.00
13068;BME280;6600;51.362;6.686;2024-02-04T02:44:09;101926.25;;;12.07;100.00
13068;BME280;6600;51.362;6.686;2024-02-04T02:46:36;101925.06;;;12.10;100.00
13068;BME280;6600;51.362;6.686;2024-02-04T02:49:02;101926.63;;;11.98;100.00
13068;BME280;6600;51.362;6.686;2024-02-04T02:51:28;101921.25;;;11.98;100.00
13068;BME280;6600;51.362;6.686;2024-02-04T02:53:53;101923.44;;;12.15;100.00
13068;BME280;6600;51.362;6.686;2024-02-04T02:56:18;101926.69;;;12.11;100.00
13068;BME280;6600;51.362;6.686;2024-02-04T02:58:44;101915.16;;;12.17;100.00
13068;BME280;6600;51.362;6.686;2024-02-04T03:01:09;101919.25;;;12.06;100.00
13068;BME280;6600;51.362;6.686;2024-02-04T03:03:34;101912.38;;;12.04;100.00
13068;BME280;6600;51.362;6.686;2024-02-04T03:06:00;101909.69;;;12.04;100.00
13068;BME280;6600;51.362;6.686;2024-02-04T03:08:25;101918.84;;;12.09;100.00
13068;BME280;6600;51.362;6.686;2024-02-04T03:10:50;101917.53;;;11.99;100.00
13068;BME280;6600;51.362;6.686;2024-02-04T03:13:16;101914.78;;;12.20;100.00
13068;BME280;6600;51.362;6.686;2024-02-04T03:15:41;101918.91;;;12.16;100.00
13068;BME280;6600;51.362;6.686;2024-02-04T03:18:08;101923.41;;;12.09;100.00
13068;BME280;6600;51.362;6.686;2024-02-04T03:20:33;101916.69;;;11.98;100.00
13068;BME280;6600;51.362;6.686;2024-02-04T03:22:58;101914.72;;;12.13;100.00
13068;BME280;6600;51.362;6.686;2024-02-04T03:25:23;101911.06;;;12.21;100.00
13068;BME280;6600;51.362;6.686;2024-02-04T03:27:52;101907.78;;;12.26;100.00
13068;BME280;6600;51.362;6.686;2024-02-04T03:30:18;101901.97;;;12.22;100.00
13068;BME280;6600;51.362;6.686;2024-02-04T03:32:43;101903.25;;;12.26;100.00
13068;BME280;6600;51.362;6.686;2024-02-04T03:35:08;101893.66;;;12.17;100.00
13068;BME280;6600;51.362;6.686;2024-02-04T03:37:34;101897.19;;;12.18;100.00
13068;BME280;6600;51.362;6.686;2024-02-04T03:39:59;101894.16;;;12.27;100.00
13068;BME280;6600;51.362;6.686;2024-02-04T03:42:24;101899.09;;;12.24;100.00
13068;BME280;6600;51.362;6.686;2024-02-04T03:44:49;101892.91;;;12.23;100.00
13068;BME280;6600;51.362;6.686;2024-02-04T03:47:15;101894.94;;;12.21;100.00
13068;BME280;6600;51.362;6.686;2024-02-04T03:49:40;101895.34;;;12.18;100.00
13068;BME280;6600;51.362;6.686;2024-02-04T03:52:06;101890.22;;;12.23;100.00
13068;BME280;6600;51.362;6.686;2024-02-04T03:54:31;101896.91;;;12.06;100.00
13068;BME280;6600;51.362;6.686;2024-02-04T03:56:56;101895.91;;;12.13;100.00
13068;BME280;6600;51.362;6.686;2024-02-04T03:59:22;101895.66;;;12.02;100.00
13068;BME280;6600;51.362;6.686;2024-02-04T04:01:51;101892.66;;;12.18;100.00
13068;BME280;6600;51.362;6.686;2024-02-04T04:04:18;101893.19;;;12.07;100.00
13068;BME280;6600;51.362;6.686;2024-02-04T04:06:44;101896.53;;;12.09;100.00
13068;BME280;6600;51.362;6.686;2024-02-04T04:09:10;101891.63;;;12.19;100.00
13068;BME280;6600;51.362;6.686;2024-02-04T04:11:36;101898.41;;;12.15;100.00
13068;BME280;6600;51.362;6.686;2024-02-04T04:14:01;101884.69;;;12.03;100.00
13068;BME280;6600;51.362;6.686;2024-02-04T04:16:26;101887.53;;;12.23;100.00
13068;BME280;6600;51.362;6.686;2024-02-04T04:18:52;101898.03;;;12.18;100.00
13068;BME280;6600;51.362;6.686;2024-02-04T04:21:17;101904.19;;;12.12;100.00
13068;BME280;6600;51.362;6.686;2024-02-04T04:23:43;101888.66;;;12.07;100.00
13068;BME280;6600;51.362;6.686;2024-02-04T04:26:08;101894.50;;;12.18;100.00
13068;BME280;6600;51.362;6.686;2024-02-04T04:28:34;101903.88;;;12.28;100.00
13068;BME280;6600;51.362;6.686;2024-02-04T04:30:59;101908.06;;;12.03;100.00
13068;BME280;6600;51.362;6.686;2024-02-04T04:33:24;101914.25;;;12.03;100.00
13068;BME280;6600;51.362;6.686;2024-02-04T04:35:49;101928.59;;;12.17;100.00
13068;BME280;6600;51.362;6.686;2024-02-04T04:38:15;101921.88;;;12.00;100.00
13068;BME280;6600;51.362;6.686;2024-02-04T04:40:40;101926.91;;;12.09;100.00
13068;BME280;6600;51.362;6.686;2024-02-04T04:43:06;101924.81;;;12.05;100.00
13068;BME280;6600;51.362;6.686;2024-02-04T04:45:31;101924.44;;;12.14;100.00
13068;BME280;6600;51.362;6.686;2024-02-04T04:47:57;101926.56;;;12.19;100.00
13068;BME280;6600;51.362;6.686;2024-02-04T04:50:22;101916.09;;;12.31;100.00
13068;BME280;6600;51.362;6.686;2024-02-04T04:52:48;101904.13;;;12.33;100.00
13068;BME280;6600;51.362;6.686;2024-02-04T04:55:13;101892.25;;;12.21;100.00
13068;BME280;6600;51.362;6.686;2024-02-04T04:57:38;101889.38;;;12.23;100.00
13068;BME280;6600;51.362;6.686;2024-02-04T05:00:04;101900.31;;;12.21;100.00
13068;BME280;6600;51.362;6.686;2024-02-04T05:02:32;101895.41;;;12.31;100.00
13068;BME280;6600;51.362;6.686;2024-02-04T05:04:57;101888.53;;;12.22;100.00
13068;BME280;6600;51.362;6.686;2024-02-04T05:07:23;101898.59;;;12.13;100.00
13068;BME280;6600;51.362;6.686;2024-02-04T05:09:48;101896.03;;;12.27;100.00
13068;BME280;6600;51.362;6.686;2024-02-04T05:12:13;101888.28;;;12.17;100.00
13068;BME280;6600;51.362;6.686;2024-02-04T05:14:39;101885.56;;;12.10;100.00
13068;BME280;6600;51.362;6.686;2024-02-04T05:17:04;101877.22;;;12.27;100.00
13068;BME280;6600;51.362;6.686;2024-02-04T05:19:30;101899.47;;;12.21;100.00
13068;BME280;6600;51.362;6.686;2024-02-04T05:21:56;101896.63;;;12.29;100.00
13068;BME280;6600;51.362;6.686;2024-02-04T05:24:21;101896.69;;;12.35;100.00
13068;BME280;6600;51.362;6.686;2024-02-04T05:26:46;101891.31;;;12.35;100.00
13068;BME280;6600;51.362;6.686;2024-02-04T05:29:12;101901.66;;;12.38;100.00
13068;BME280;6600;51.362;6.686;2024-02-04T05:31:43;101881.88;;;12.52;100.00
13068;BME280;6600;51.362;6.686;2024-02-04T05:34:09;101872.69;;;12.34;100.00
13068;BME280;6600;51.362;6.686;2024-02-04T05:36:35;101861.13;;;12.33;100.00
13068;BME280;6600;51.362;6.686;2024-02-04T05:39:13;101861.56;;;12.37;100.00
13068;BME280;6600;51.362;6.686;2024-02-04T05:41:40;101861.06;;;12.20;100.00
13068;BME280;6600;51.362;6.686;2024-02-04T05:44:06;101858.59;;;12.25;100.00
13068;BME280;6600;51.362;6.686;2024-02-04T05:46:32;101854.22;;;12.24;100.00
13068;BME280;6600;51.362;6.686;2024-02-04T05:48:58;101846.22;;;12.31;100.00
13068;BME280;6600;51.362;6.686;2024-02-04T05:51:23;101861.41;;;12.17;100.00
13068;BME280;6600;51.362;6.686;2024-02-04T05:53:49;101861.06;;;12.20;100.00
13068;BME280;6600;51.362;6.686;2024-02-04T05:56:14;101849.94;;;12.30;100.00
13068;BME280;6600;51.362;6.686;2024-02-04T05:58:40;101851.38;;;12.32;100.00
13068;BME280;6600;51.362;6.686;2024-02-04T06:01:05;101848.97;;;12.03;100.00
13068;BME280;6600;51.362;6.686;2024-02-04T06:03:30;101841.19;;;12.21;100.00
13068;BME280;6600;51.362;6.686;2024-02-04T06:05:56;101830.78;;;12.05;100.00
13068;BME280;6600;51.362;6.686;2024-02-04T06:08:21;101843.25;;;12.19;100.00
13068;BME280;6600;51.362;6.686;2024-02-04T06:10:46;101846.97;;;12.18;100.00
13068;BME280;6600;51.362;6.686;2024-02-04T06:13:12;101848.47;;;12.27;100.00
13068;BME280;6600;51.362;6.686;2024-02-04T06:15:37;101861.06;;;12.20;100.00
13068;BME280;6600;51.362;6.686;2024-02-04T06:18:02;101859.78;;;12.16;100.00
13068;BME280;6600;51.362;6.686;2024-02-04T06:20:28;101850.25;;;12.13;100.00
13068;BME280;6600;51.362;6.686;2024-02-04T06:22:53;101843.66;;;12.16;100.00
13068;BME280;6600;51.362;6.686;2024-02-04T06:25:18;101856.03;;;12.17;100.00
13068;BME280;6600;51.362;6.686;2024-02-04T06:27:44;101853.03;;;12.27;100.00
13068;BME280;6600;51.362;6.686;2024-02-04T06:30:10;101835.06;;;12.34;100.00
13068;BME280;6600;51.362;6.686;2024-02-04T06:32:35;101832.72;;;12.24;100.00
13068;BME280;6600;51.362;6.686;2024-02-04T06:35:00;101837.41;;;12.09;100.00
13068;BME280;6600;51.362;6.686;2024-02-04T06:37:26;101826.03;;;12.07;100.00
13068;BME280;6600;51.362;6.686;2024-02-04T06:39:52;101839.91;;;12.10;100.00
13068;BME280;6600;51.362;6.686;2024-02-04T06:42:17;101839.94;;;12.17;100.00
13068;BME280;6600;51.362;6.686;2024-02-04T06:44:46;101859.00;;;12.22;100.00
13068;BME280;6600;51.362;6.686;2024-02-04T06:47:12;101851.91;;;12.14;100.00
13068;BME280;6600;51.362;6.686;2024-02-04T06:49:39;101832.13;;;12.22;100.00
13068;BME280;6600;51.362;6.686;2024-02-04T06:52:05;101828.81;;;12.20;100.00
13068;BME280;6600;51.362;6.686;2024-02-04T06:54:30;101826.94;;;12.21;100.00
13068;BME280;6600;51.362;6.686;2024-02-04T06:56:55;101827.34;;;12.24;100.00
13068;BME280;6600;51.362;6.686;2024-02-04T06:59:21;101822.91;;;12.03;100.00
13068;BME280;6600;51.362;6.686;2024-02-04T07:01:46;101822.78;;;12.18;100.00
13068;BME280;6600;51.362;6.686;2024-02-04T07:04:12;101837.00;;;12.05;100.00
13068;BME280;6600;51.362;6.686;2024-02-04T07:06:37;101832.00;;;12.02;100.00
13068;BME280;6600;51.362;6.686;2024-02-04T07:09:03;101836.66;;;12.22;100.00
13068;BME280;6600;51.362;6.686;2024-02-04T07:11:28;101832.13;;;12.22;100.00
13068;BME280;6600;51.362;6.686;2024-02-04T07:13:53;101822.22;;;12.29;100.00
13068;BME280;6600;51.362;6.686;2024-02-04T07:16:26;101823.91;;;12.37;100.00
13068;BME280;6600;51.362;6.686;2024-02-04T07:18:52;101825.72;;;12.23;100.00
13068;BME280;6600;51.362;6.686;2024-02-04T07:21:17;101832.56;;;12.32;100.00
13068;BME280;6600;51.362;6.686;2024-02-04T07:23:42;101835.03;;;12.27;100.00
13068;BME280;6600;51.362;6.686;2024-02-04T07:26:08;101838.16;;;12.31;100.00
13068;BME280;6600;51.362;6.686;2024-02-04T07:28:34;101842.56;;;12.10;100.00
13068;BME280;6600;51.362;6.686;2024-02-04T07:31:00;101842.88;;;12.22;100.00
13068;BME280;6600;51.362;6.686;2024-02-04T07:33:25;101839.16;;;12.23;100.00
13068;BME280;6600;51.362;6.686;2024-02-04T07:35:50;101842.91;;;12.29;100.00
13068;BME280;6600;51.362;6.686;2024-02-04T07:38:16;101856.03;;;12.17;100.00
13068;BME280;6600;51.362;6.686;2024-02-04T07:40:41;101844.50;;;12.17;100.00
13068;BME280;6600;51.362;6.686;2024-02-04T07:43:06;101845.22;;;12.04;100.00
13068;BME280;6600;51.362;6.686;2024-02-04T07:45:32;101839.16;;;12.23;100.00
13068;BME280;6600;51.362;6.686;2024-02-04T07:47:58;101834.66;;;12.30;100.00
13068;BME280;6600;51.362;6.686;2024-02-04T07:50:23;101827.16;;;12.26;100.00
13068;BME280;6600;51.362;6.686;2024-02-04T07:52:48;101833.59;;;12.31;100.00
13068;BME280;6600;51.362;6.686;2024-02-04T07:55:14;101825.09;;;12.28;100.00
13068;BME280;6600;51.362;6.686;2024-02-04T07:57:39;101829.59;;;12.14;100.00
13068;BME280;6600;51.362;6.686;2024-02-04T08:00:06;101842.06;;;12.28;100.00
13068;BME280;6600;51.362;6.686;2024-02-04T08:02:34;101834.66;;;12.30;100.00
13068;BME280;6600;51.362;6.686;2024-02-04T08:04:59;101831.72;;;12.25;100.00
13068;BME280;6600;51.362;6.686;2024-02-04T08:07:25;101838.25;;;12.09;100.00
13068;BME280;6600;51.362;6.686;2024-02-04T08:09:51;101822.13;;;12.09;100.00
13068;BME280;6600;51.362;6.686;2024-02-04T08:12:17;101826.75;;;12.22;100.00
13068;BME280;6600;51.362;6.686;2024-02-04T08:14:43;101829.19;;;12.17;100.00
13068;BME280;6600;51.362;6.686;2024-02-04T08:17:08;101828.75;;;12.13;100.00
13068;BME280;6600;51.362;6.686;2024-02-04T08:19:33;101831.31;;;12.28;100.00
13068;BME280;6600;51.362;6.686;2024-02-04T08:21:58;101839.22;;;12.36;100.00
13068;BME280;6600;51.362;6.686;2024-02-04T08:24:24;101831.78;;;12.38;100.00
13068;BME280;6600;51.362;6.686;2024-02-04T08:26:49;101832.56;;;12.32;100.00
13068;BME280;6600;51.362;6.686;2024-02-04T08:29:15;101831.38;;;12.41;100.00
13068;BME280;6600;51.362;6.686;2024-02-04T08:31:40;101831.34;;;12.35;100.00
13068;BME280;6600;51.362;6.686;2024-02-04T08:34:05;101832.97;;;12.29;100.00
13068;BME280;6600;51.362;6.686;2024-02-04T08:36:32;101833.13;;;12.21;100.00
13068;BME280;6600;51.362;6.686;2024-02-04T08:38:57;101819.69;;;12.21;100.00
13068;BME280;6600;51.362;6.686;2024-02-04T08:41:23;101827.19;;;12.32;100.00
13068;BME280;6600;51.362;6.686;2024-02-04T08:43:48;101826.34;;;12.25;100.00
13068;BME280;6600;51.362;6.686;2024-02-04T08:46:13;101828.50;;;12.49;100.00
13068;BME280;6600;51.362;6.686;2024-02-04T08:48:39;101826.84;;;12.48;100.00
13068;BME280;6600;51.362;6.686;2024-02-04T08:51:10;101823.91;;;12.37;100.00
13068;BME280;6600;51.362;6.686;2024-02-04T08:53:35;101828.06;;;12.39;100.00
13068;BME280;6600;51.362;6.686;2024-02-04T08:56:01;101826.13;;;12.20;100.00
13068;BME280;6600;51.362;6.686;2024-02-04T08:58:26;101823.50;;;12.33;100.00
13068;BME280;6600;51.362;6.686;2024-02-04T09:00:51;101820.63;;;12.41;100.00
13068;BME280;6600;51.362;6.686;2024-02-04T09:03:16;101821.88;;;12.45;100.00
13068;BME280;6600;51.362;6.686;2024-02-04T09:05:42;101805.91;;;12.31;100.00
13068;BME280;6600;51.362;6.686;2024-02-04T09:08:07;101813.16;;;12.30;100.00
13068;BME280;6600;51.362;6.686;2024-02-04T09:10:32;101818.53;;;12.30;100.00
13068;BME280;6600;51.362;6.686;2024-02-04T09:12:58;101828.41;;;12.23;100.00
13068;BME280;6600;51.362;6.686;2024-02-04T09:15:23;101825.56;;;12.38;100.00
13068;BME280;6600;51.362;6.686;2024-02-04T09:17:48;101840.28;;;12.48;100.00
13068;BME280;6600;51.362;6.686;2024-02-04T09:20:14;101838.28;;;12.63;100.00
13068;BME280;6600;51.362;6.686;2024-02-04T09:22:40;101847.03;;;12.79;100.00
13068;BME280;6600;51.362;6.686;2024-02-04T09:25:06;101839.75;;;12.73;100.00
13068;BME280;6600;51.362;6.686;2024-02-04T09:27:31;101837.69;;;12.68;100.00
13068;BME280;6600;51.362;6.686;2024-02-04T09:29:57;101843.50;;;12.72;100.00
13068;BME280;6600;51.362;6.686;2024-02-04T09:32:23;101832.34;;;12.75;100.00
13068;BME280;6600;51.362;6.686;2024-02-04T09:34:49;101832.63;;;12.45;100.00
13068;BME280;6600;51.362;6.686;2024-02-04T09:37:14;101839.28;;;12.56;100.00
13068;BME280;6600;51.362;6.686;2024-02-04T09:39:39;101830.22;;;12.63;100.00
13068;BME280;6600;51.362;6.686;2024-02-04T09:42:05;101832.25;;;12.55;100.00
13068;BME280;6600;51.362;6.686;2024-02-04T09:44:30;101827.69;;;12.49;100.00
13068;BME280;6600;51.362;6.686;2024-02-04T09:46:57;101833.72;;;12.57;100.00
13068;BME280;6600;51.362;6.686;2024-02-04T09:49:25;101832.66;;;12.58;100.00
13068;BME280;6600;51.362;6.686;2024-02-04T09:51:51;101836.41;;;12.57;100.00
13068;BME280;6600;51.362;6.686;2024-02-04T09:54:18;101825.69;;;12.64;100.00
13068;BME280;6600;51.362;6.686;2024-02-04T09:56:44;101837.44;;;12.56;100.00
13068;BME280;6600;51.362;6.686;2024-02-04T09:59:09;101839.56;;;12.68;100.00
13068;BME280;6600;51.362;6.686;2024-02-04T10:01:35;101833.06;;;12.55;100.00
13068;BME280;6600;51.362;6.686;2024-02-04T10:04:01;101838.88;;;12.59;100.00
13068;BME280;6600;51.362;6.686;2024-02-04T10:06:27;101846.63;;;12.75;100.00
13068;BME280;6600;51.362;6.686;2024-02-04T10:08:52;101842.25;;;12.68;100.00
13068;BME280;6600;51.362;6.686;2024-02-04T10:11:18;101854.25;;;12.72;100.00
13068;BME280;6600;51.362;6.686;2024-02-04T10:13:48;101850.09;;;12.76;100.00
13068;BME280;6600;51.362;6.686;2024-02-04T10:16:15;101852.63;;;12.84;100.00
13068;BME280;6600;51.362;6.686;2024-02-04T10:18:42;101854.72;;;12.88;100.00
13068;BME280;6600;51.362;6.686;2024-02-04T10:21:21;101849.66;;;12.65;100.00
13068;BME280;6600;51.362;6.686;2024-02-04T10:23:48;101843.94;;;12.82;100.00
13068;BME280;6600;51.362;6.686;2024-02-04T10:26:14;101844.38;;;12.92;100.00
13068;BME280;6600;51.362;6.686;2024-02-04T10:28:40;101845.41;;;12.91;100.00
13068;BME280;6600;51.362;6.686;2024-02-04T10:31:08;101854.50;;;12.96;100.00
13068;BME280;6600;51.362;6.686;2024-02-04T10:33:34;101852.22;;;12.87;100.00
13068;BME280;6600;51.362;6.686;2024-02-04T10:36:00;101850.56;;;12.86;100.00
13068;BME280;6600;51.362;6.686;2024-02-04T10:38:25;101873.31;;;12.90;100.00
13068;BME280;6600;51.362;6.686;2024-02-04T10:40:53;101856.13;;;12.78;100.00
13068;BME280;6600;51.362;6.686;2024-02-04T10:43:19;101861.94;;;12.88;100.00
13068;BME280;6600;51.362;6.686;2024-02-04T10:45:46;101876.63;;;12.79;100.00
13068;BME280;6600;51.362;6.686;2024-02-04T10:48:19;101862.13;;;12.80;100.00
13068;BME280;6600;51.362;6.686;2024-02-04T10:50:47;101859.25;;;12.81;100.00
13068;BME280;6600;51.362;6.686;2024-02-04T10:53:14;101857.59;;;12.87;100.00
13068;BME280;6600;51.362;6.686;2024-02-04T10:55:45;101853.03;;;12.81;100.00
13068;BME280;6600;51.362;6.686;2024-02-04T10:58:12;101843.91;;;12.69;100.00
13068;BME280;6600;51.362;6.686;2024-02-04T11:00:39;101839.81;;;12.86;100.00
13068;BME280;6600;51.362;6.686;2024-02-04T11:03:05;101836.47;;;12.84;100.00
13068;BME280;6600;51.362;6.686;2024-02-04T11:05:32;101848.09;;;12.91;100.00
13068;BME280;6600;51.362;6.686;2024-02-04T11:08:01;101840.16;;;12.63;100.00
13068;BME280;6600;51.362;6.686;2024-02-04T11:10:29;101827.81;;;12.82;100.00
13068;BME280;6600;51.362;6.686;2024-02-04T11:12:57;101818.06;;;12.81;100.00
13068;BME280;6600;51.362;6.686;2024-02-04T11:15:28;101822.00;;;12.85;100.00
13068;BME280;6600;51.362;6.686;2024-02-04T11:18:30;101803.00;;;12.99;100.00
13068;BME280;6600;51.362;6.686;2024-02-04T11:26:28;101799.84;;;12.83;100.00
13068;BME280;6600;51.362;6.686;2024-02-04T11:28:53;101801.75;;;12.89;100.00
13068;BME280;6600;51.362;6.686;2024-02-04T11:31:19;101795.72;;;12.87;100.00
13068;BME280;6600;51.362;6.686;2024-02-04T11:33:45;101796.38;;;12.82;100.00
13068;BME280;6600;51.362;6.686;2024-02-04T11:36:14;101793.88;;;13.07;100.00
13068;BME280;6600;51.362;6.686;2024-02-04T11:38:40;101784.19;;;12.93;100.00
13068;BME280;6600;51.362;6.686;2024-02-04T11:41:06;101779.38;;;12.82;100.00
13068;BME280;6600;51.362;6.686;2024-02-04T11:43:33;101786.03;;;12.99;100.00
13068;BME280;6600;51.362;6.686;2024-02-04T11:46:03;101775.69;;;13.02;100.00
13068;BME280;6600;51.362;6.686;2024-02-04T11:48:29;101767.38;;;12.91;100.00
13068;BME280;6600;51.362;6.686;2024-02-04T11:50:57;101764.09;;;12.95;100.00
13068;BME280;6600;51.362;6.686;2024-02-04T11:53:23;101765.53;;;12.98;100.00
13068;BME280;6600;51.362;6.686;2024-02-04T11:55:51;101774.44;;;13.05;100.00
13068;BME280;6600;51.362;6.686;2024-02-04T11:58:18;101777.94;;;12.86;100.00
13068;BME280;6600;51.362;6.686;2024-02-04T12:00:43;101766.97;;;12.94;100.00
13068;BME280;6600;51.362;6.686;2024-02-04T12:03:09;101754.13;;;12.83;100.00
13068;BME280;6600;51.362;6.686;2024-02-04T12:05:35;101751.47;;;12.89;100.00
13068;BME280;6600;51.362;6.686;2024-02-04T12:08:02;101742.97;;;12.86;100.00
13068;BME280;6600;51.362;6.686;2024-02-04T12:10:29;101755.38;;;13.00;100.00
13068;BME280;6600;51.362;6.686;2024-02-04T12:12:55;101757.47;;;12.85;100.00
13068;BME280;6600;51.362;6.686;2024-02-04T12:15:21;101755.81;;;12.97;100.00
13068;BME280;6600;51.362;6.686;2024-02-04T12:17:46;101759.56;;;13.02;100.00
13068;BME280;6600;51.362;6.686;2024-02-04T12:20:12;101760.34;;;12.90;100.00
13068;BME280;6600;51.362;6.686;2024-02-04T12:22:37;101763.22;;;12.69;100.00
13068;BME280;6600;51.362;6.686;2024-02-04T12:25:03;101743.81;;;12.93;100.00
13068;BME280;6600;51.362;6.686;2024-02-04T12:27:29;101733.88;;;12.93;100.00
13068;BME280;6600;51.362;6.686;2024-02-04T12:29:55;101743.81;;;12.93;100.00
13068;BME280;6600;51.362;6.686;2024-02-04T12:32:20;101734.06;;;12.72;100.00
13068;BME280;6600;51.362;6.686;2024-02-04T12:34:49;101732.22;;;12.86;100.00
13068;BME280;6600;51.362;6.686;2024-02-04T12:37:19;101724.97;;;12.80;100.00
13068;BME280;6600;51.362;6.686;2024-02-04T12:39:44;101725.59;;;12.95;100.00
13068;BME280;6600;51.362;6.686;2024-02-04T12:42:09;101723.94;;;12.94;100.00
13068;BME280;6600;51.362;6.686;2024-02-04T12:44:35;101718.97;;;12.91;100.00
13068;BME280;6600;51.362;6.686;2024-02-04T12:47:00;101725.41;;;13.03;100.00
13068;BME280;6600;51.362;6.686;2024-02-04T12:49:27;101718.34;;;13.02;100.00
13068;BME280;6600;51.362;6.686;2024-02-04T12:54:20;101732.66;;;12.89;100.00
13068;BME280;6600;51.362;6.686;2024-02-04T12:56:53;101718.56;;;12.81;100.00